createdAt,value
2022-12-19T00:02:44.183Z,-10.09
2022-12-19T00:05:51.902Z,-10.01
2022-12-19T00:09:00.536Z,-9.97
2022-12-19T00:12:07.408Z,-9.99
2022-12-19T00:15:16.780Z,-9.98
2022-12-19T00:18:23.530Z,-9.94
2022-12-19T00:21:34.049Z,-9.88
2022-12-19T00:24:42.264Z,-9.83
2022-12-19T00:27:47.777Z,-9.83
2022-12-19T00:30:56.749Z,-9.79
2022-12-19T00:34:02.794Z,-9.73
2022-12-19T00:37:08.997Z,-9.66
2022-12-19T00:40:15.438Z,-9.63
2022-12-19T00:43:21.883Z,-9.65
2022-12-19T00:46:32.952Z,-9.65
2022-12-19T00:49:39.476Z,-9.64
2022-12-19T00:52:47.755Z,-9.65
2022-12-19T00:55:53.943Z,-9.66
2022-12-19T00:59:00.328Z,-9.69
2022-12-19T01:02:10.184Z,-9.67
2022-12-19T01:05:16.540Z,-9.66
2022-12-19T01:08:23.166Z,-9.66
2022-12-19T01:11:41.548Z,-9.66
2022-12-19T01:14:48.397Z,-9.69
2022-12-19T01:17:56.723Z,-9.76
2022-12-19T01:21:09.595Z,-9.82
2022-12-19T01:24:18.895Z,-9.82
2022-12-19T01:27:28.731Z,-9.81
2022-12-19T01:30:34.364Z,-9.79
2022-12-19T01:33:47.299Z,-9.80
2022-12-19T01:36:55.663Z,-9.79
2022-12-19T01:40:01.873Z,-9.77
2022-12-19T01:43:08.494Z,-9.78
2022-12-19T01:46:18.868Z,-9.81
2022-12-19T01:49:36.932Z,-9.81
2022-12-19T01:52:43.590Z,-9.84
2022-12-19T01:55:49.012Z,-9.82
2022-12-19T01:59:06.638Z,-9.81
2022-12-19T02:02:24.870Z,-9.79
2022-12-19T02:05:36.364Z,-9.83
2022-12-19T02:08:47.570Z,-9.86
2022-12-19T02:11:54.767Z,-9.82
2022-12-19T02:15:03.709Z,-9.77
2022-12-19T02:18:27.231Z,-9.76
2022-12-19T02:21:58.443Z,-9.76
2022-12-19T02:25:39.809Z,-9.72
2022-12-19T02:29:17.802Z,-9.70
2022-12-19T02:32:38.752Z,-9.68
2022-12-19T02:35:54.622Z,-9.70
2022-12-19T02:39:11.132Z,-9.73
2022-12-19T02:42:28.836Z,-9.77
2022-12-19T02:45:44.035Z,-9.83
2022-12-19T02:48:53.949Z,-9.87
2022-12-19T02:52:00.377Z,-9.90
2022-12-19T02:55:14.191Z,-9.98
2022-12-19T02:58:47.703Z,-10.05
2022-12-19T03:02:04.313Z,-10.08
2022-12-19T03:05:28.102Z,-10.11
2022-12-19T03:08:56.478Z,-10.34
2022-12-19T03:12:17.381Z,-10.12
2022-12-19T03:15:26.935Z,-10.09
2022-12-19T03:18:36.498Z,-10.04
2022-12-19T03:21:50.754Z,-10.00
2022-12-19T03:24:56.616Z,-9.97
2022-12-19T03:28:14.119Z,-9.95
2022-12-19T03:31:27.655Z,-9.92
2022-12-19T03:34:44.071Z,-9.89
2022-12-19T03:38:01.205Z,-9.92
2022-12-19T03:41:14.897Z,-10.22
2022-12-19T03:44:24.228Z,-9.87
2022-12-19T03:47:40.320Z,-9.84
2022-12-19T03:51:02.078Z,-9.84
2022-12-19T03:54:20.276Z,-9.90
2022-12-19T03:57:39.251Z,-9.94
2022-12-19T04:00:50.535Z,-9.96
2022-12-19T04:03:56.121Z,-9.95
2022-12-19T04:07:06.577Z,-9.93
2022-12-19T04:10:22.300Z,-9.94
2022-12-19T04:13:47.531Z,-10.03
2022-12-19T04:17:04.817Z,-10.10
2022-12-19T04:20:15.893Z,-10.15
2022-12-19T04:23:32.015Z,-10.14
2022-12-19T04:26:48.220Z,-10.14
2022-12-19T04:30:01.574Z,-10.13
2022-12-19T04:33:08.484Z,-10.13
2022-12-19T04:36:15.037Z,-10.13
2022-12-19T04:39:21.476Z,-10.15
2022-12-19T04:42:30.203Z,-10.18
2022-12-19T04:45:36.706Z,-10.19
2022-12-19T04:48:42.864Z,-10.22
2022-12-19T04:51:49.497Z,-10.26
2022-12-19T04:54:54.892Z,-10.27
2022-12-19T04:58:08.506Z,-10.30
2022-12-19T05:01:14.471Z,-10.31
2022-12-19T05:04:20.962Z,-10.27
2022-12-19T05:07:26.488Z,-10.26
2022-12-19T05:10:32.898Z,-10.32
2022-12-19T05:13:41.195Z,-10.34
2022-12-19T05:16:47.442Z,-10.43
2022-12-19T05:19:53.074Z,-10.52
2022-12-19T05:23:03.488Z,-10.53
2022-12-19T05:26:11.274Z,-10.62
2022-12-19T05:29:20.692Z,-10.52
2022-12-19T05:32:26.055Z,-10.55
2022-12-19T05:35:32.308Z,-10.57
2022-12-19T05:38:38.976Z,-10.84
2022-12-19T05:41:48.970Z,-10.53
2022-12-19T05:44:58.125Z,-10.47
2022-12-19T05:48:04.373Z,-10.44
2022-12-19T05:51:09.798Z,-10.39
2022-12-19T05:54:16.512Z,-10.34
2022-12-19T05:57:21.895Z,-10.38
2022-12-19T06:00:30.979Z,-10.45
2022-12-19T06:03:36.547Z,-10.52
2022-12-19T06:06:42.808Z,-10.61
2022-12-19T06:09:48.208Z,-10.71
2022-12-19T06:12:54.455Z,-10.72
2022-12-19T06:16:06.588Z,-10.76
2022-12-19T06:19:12.878Z,-10.72
2022-12-19T06:22:18.643Z,-10.68
2022-12-19T06:25:24.913Z,-11.34
2022-12-19T06:28:33.617Z,-10.72
2022-12-19T06:31:42.684Z,-10.71
2022-12-19T06:35:03.739Z,-10.71
2022-12-19T06:38:10.820Z,-10.66
2022-12-19T06:41:33.956Z,-10.59
2022-12-19T06:44:43.784Z,-10.53
2022-12-19T06:47:52.188Z,-10.50
2022-12-19T06:50:58.665Z,-10.48
2022-12-19T06:54:04.363Z,-10.47
2022-12-19T06:57:10.752Z,-10.45
2022-12-19T07:00:17.843Z,-10.42
2022-12-19T07:03:35.300Z,-10.43
2022-12-19T07:06:47.336Z,-10.49
2022-12-19T07:09:55.238Z,-10.56
2022-12-19T07:13:00.728Z,-10.53
2022-12-19T07:16:09.764Z,-10.48
2022-12-19T07:19:18.631Z,-10.39
2022-12-19T07:22:28.088Z,-10.35
2022-12-19T07:25:34.401Z,-10.35
2022-12-19T07:28:44.651Z,-10.34
2022-12-19T07:31:50.349Z,-10.32
2022-12-19T07:35:02.864Z,-10.24
2022-12-19T07:38:10.635Z,-10.16
2022-12-19T07:41:17.145Z,-10.04
2022-12-19T07:44:22.557Z,-10.02
2022-12-19T07:47:29.017Z,-9.83
2022-12-19T07:50:37.693Z,-9.66
2022-12-19T07:53:43.995Z,-9.49
2022-12-19T07:56:49.405Z,-9.36
2022-12-19T07:59:55.888Z,-9.23
2022-12-19T08:03:02.502Z,-9.13
2022-12-19T08:06:12.401Z,-9.06
2022-12-19T08:09:18.012Z,-9.03
2022-12-19T08:12:24.375Z,-9.03
2022-12-19T08:15:29.886Z,-9.03
2022-12-19T08:18:36.121Z,-8.99
2022-12-19T08:21:44.294Z,-8.98
2022-12-19T08:24:50.536Z,-8.95
2022-12-19T08:27:55.879Z,-8.90
2022-12-19T08:31:08.479Z,-8.84
2022-12-19T08:34:14.184Z,-8.78
2022-12-19T08:37:23.231Z,-8.70
2022-12-19T08:40:28.622Z,-8.61
2022-12-19T08:43:35.851Z,-8.53
2022-12-19T08:46:46.507Z,-8.43
2022-12-19T08:49:57.061Z,-8.37
2022-12-19T08:53:05.243Z,-8.32
2022-12-19T08:56:16.646Z,-8.27
2022-12-19T08:59:31.060Z,-8.24
2022-12-19T09:02:38.351Z,-8.20
2022-12-19T09:06:03.859Z,-8.12
2022-12-19T09:09:13.264Z,-8.02
2022-12-19T09:12:19.547Z,-7.96
2022-12-19T09:15:25.899Z,-7.90
2022-12-19T09:18:31.712Z,-7.79
2022-12-19T09:21:37.968Z,-7.69
2022-12-19T09:24:46.216Z,-7.63
2022-12-19T09:28:26.450Z,-7.52
2022-12-19T09:31:21.828Z,-7.34
2022-12-19T09:34:38.116Z,-7.19
2022-12-19T09:37:44.768Z,-7.04
2022-12-19T09:41:25.904Z,-7.11
2022-12-19T09:45:05.843Z,-6.76
2022-12-19T09:48:23.887Z,-6.65
2022-12-19T09:51:41.625Z,-6.52
2022-12-19T09:54:56.192Z,-6.41
2022-12-19T09:58:15.669Z,-6.33
2022-12-19T10:01:31.386Z,-6.23
2022-12-19T10:04:41.094Z,-6.18
2022-12-19T10:08:07.576Z,-6.14
2022-12-19T10:12:39.947Z,-6.04
2022-12-19T10:15:28.999Z,-5.96
2022-12-19T10:18:56.472Z,-5.90
2022-12-19T10:22:21.230Z,-5.83
2022-12-19T10:25:40.182Z,-5.71
2022-12-19T10:29:12.161Z,-5.59
2022-12-19T10:32:36.891Z,-5.50
2022-12-19T10:35:49.511Z,-5.42
2022-12-19T10:39:11.565Z,-5.34
2022-12-19T10:42:33.334Z,-5.28
2022-12-19T10:45:48.604Z,-5.20
2022-12-19T10:48:57.704Z,-5.13
2022-12-19T10:52:08.116Z,-5.05
2022-12-19T10:55:37.450Z,-4.98
2022-12-19T10:58:47.202Z,-4.80
2022-12-19T11:02:00.394Z,-4.69
2022-12-19T11:05:28.370Z,-4.60
2022-12-19T11:08:38.306Z,-4.52
2022-12-19T11:13:22.610Z,-4.44
2022-12-19T11:19:50.788Z,-4.37
2022-12-19T11:27:39.580Z,-4.27
2022-12-19T11:29:19.482Z,-4.17
2022-12-19T11:30:39.207Z,-4.10
2022-12-19T11:33:21.464Z,-3.87
2022-12-19T11:36:42.617Z,-3.80
2022-12-19T11:40:01.270Z,-3.71
2022-12-19T11:43:43.771Z,-3.66
2022-12-19T11:46:56.931Z,-3.58
2022-12-19T11:50:17.857Z,-3.51
2022-12-19T11:53:33.867Z,-3.47
2022-12-19T11:56:43.278Z,-3.44
2022-12-19T11:59:51.075Z,-3.39
2022-12-19T12:03:55.945Z,-3.38
2022-12-19T12:07:42.307Z,-3.36
2022-12-19T12:15:56.913Z,-3.21
2022-12-19T12:24:07.939Z,-3.12
2022-12-19T12:31:06.028Z,-3.10
2022-12-19T12:31:40.037Z,-3.03
2022-12-19T12:31:55.328Z,-2.98
2022-12-19T12:32:03.004Z,-2.90
2022-12-19T12:35:33.129Z,-2.84
2022-12-19T12:41:03.420Z,-2.85
2022-12-19T12:44:14.175Z,-2.86
2022-12-19T12:47:27.284Z,-2.87
2022-12-19T12:50:37.334Z,-2.93
2022-12-19T12:53:51.146Z,-2.91
2022-12-19T12:56:58.410Z,-2.98
2022-12-19T13:00:33.558Z,-3.01
2022-12-19T13:03:45.107Z,-3.04
2022-12-19T13:07:29.010Z,-3.14
2022-12-19T13:10:35.676Z,-3.19
2022-12-19T13:13:58.276Z,-3.23
2022-12-19T13:17:05.369Z,-3.22
2022-12-19T13:20:49.167Z,-3.19
2022-12-19T13:23:54.658Z,-3.16
2022-12-19T13:27:01.003Z,-3.14
2022-12-19T13:30:21.825Z,-3.07
2022-12-19T13:33:28.500Z,-3.04
2022-12-19T13:39:50.480Z,-3.06
2022-12-19T13:41:24.343Z,-3.13
2022-12-19T13:44:28.333Z,-3.12
2022-12-19T13:47:40.849Z,-3.13
2022-12-19T13:50:50.876Z,-3.14
2022-12-19T13:54:00.377Z,-3.14
2022-12-19T13:57:09.589Z,-3.16
2022-12-19T14:00:23.519Z,-3.11
2022-12-19T14:03:40.913Z,-3.16
2022-12-19T14:06:49.917Z,-3.19
2022-12-19T14:11:32.891Z,-3.23
2022-12-19T14:14:03.372Z,-3.26
2022-12-19T14:17:12.131Z,-3.26
2022-12-19T14:22:01.369Z,-3.31
2022-12-19T14:23:51.148Z,-3.33
2022-12-19T14:28:26.482Z,-3.36
2022-12-19T14:30:38.629Z,-3.40
2022-12-19T14:34:11.633Z,-3.41
2022-12-19T14:37:54.315Z,-3.42
2022-12-19T14:41:08.577Z,-3.47
2022-12-19T14:52:51.103Z,-3.51
2022-12-19T14:54:11.399Z,-3.56
2022-12-19T14:54:22.845Z,-3.62
2022-12-19T14:56:00.426Z,-3.67
2022-12-19T14:58:55.261Z,-3.71
2022-12-19T15:01:43.076Z,-3.77
2022-12-19T15:04:55.299Z,-3.79
2022-12-19T15:08:05.150Z,-3.81
2022-12-19T15:11:49.960Z,-3.97
2022-12-19T15:14:59.656Z,-3.84
2022-12-19T15:18:29.870Z,-3.87
2022-12-19T15:21:36.134Z,-3.86
2022-12-19T15:24:42.218Z,-3.89
2022-12-19T15:27:50.597Z,-3.95
2022-12-19T15:31:04.440Z,-3.96
2022-12-19T15:34:35.481Z,-3.97
2022-12-19T15:37:44.047Z,-4.00
2022-12-19T15:40:51.249Z,-4.00
2022-12-19T15:44:05.586Z,-4.01
2022-12-19T15:47:37.185Z,-3.98
2022-12-19T15:50:47.585Z,-3.95
2022-12-19T15:53:56.966Z,-3.94
2022-12-19T15:57:16.537Z,-3.93
2022-12-19T16:00:27.951Z,-3.89
2022-12-19T16:03:33.872Z,-3.89
2022-12-19T16:06:43.077Z,-3.90
2022-12-19T16:09:49.478Z,-3.89
2022-12-19T16:12:59.691Z,-3.94
2022-12-19T16:16:15.295Z,-4.04
2022-12-19T16:19:30.201Z,-4.07
2022-12-19T16:22:39.042Z,-4.23
2022-12-19T16:25:49.897Z,-4.34
2022-12-19T16:28:55.331Z,-4.45
2022-12-19T16:32:01.943Z,-4.51
2022-12-19T16:35:23.995Z,-4.60
2022-12-19T16:38:43.812Z,-4.66
2022-12-19T16:41:50.125Z,-4.73
2022-12-19T16:44:58.355Z,-4.83
2022-12-19T16:48:03.986Z,-4.88
2022-12-19T16:51:22.900Z,-5.08
2022-12-19T16:54:31.142Z,-4.90
2022-12-19T16:57:38.341Z,-4.88
2022-12-19T17:00:45.064Z,-4.83
2022-12-19T17:03:52.053Z,-4.83
2022-12-19T17:06:57.933Z,-4.78
2022-12-19T17:10:07.847Z,-4.76
2022-12-19T17:13:17.749Z,-4.75
2022-12-19T17:16:24.520Z,-4.70
2022-12-19T17:19:39.172Z,-4.67
2022-12-19T17:22:45.553Z,-4.61
2022-12-19T17:25:55.163Z,-4.53
2022-12-19T17:29:01.484Z,-4.47
2022-12-19T17:32:09.131Z,-4.46
2022-12-19T17:35:27.607Z,-4.36
2022-12-19T17:38:33.940Z,-4.33
2022-12-19T17:41:43.493Z,-4.29
2022-12-19T17:44:48.926Z,-4.34
2022-12-19T17:48:02.549Z,-4.28
2022-12-19T17:51:08.922Z,-4.20
2022-12-19T17:54:16.627Z,-4.13
2022-12-19T17:57:24.867Z,-4.15
2022-12-19T18:00:35.435Z,-4.05
2022-12-19T18:03:41.184Z,-3.97
2022-12-19T18:06:48.081Z,-3.99
2022-12-19T18:09:53.896Z,-3.94
2022-12-19T18:13:03.190Z,-4.01
2022-12-19T18:16:16.963Z,-4.00
2022-12-19T18:19:30.183Z,-3.95
2022-12-19T18:22:36.284Z,-3.88
2022-12-19T18:25:42.525Z,-3.90
2022-12-19T18:28:51.152Z,-3.81
2022-12-19T18:31:58.938Z,-3.74
2022-12-19T18:35:04.492Z,-3.74
2022-12-19T18:38:16.808Z,-3.77
2022-12-19T18:41:24.075Z,-3.90
2022-12-19T18:44:33.092Z,-3.68
2022-12-19T18:47:38.665Z,-3.67
2022-12-19T18:50:45.993Z,-3.59
2022-12-19T18:53:53.072Z,-3.53
2022-12-19T18:57:00.168Z,-3.48
2022-12-19T19:00:10.840Z,-3.46
2022-12-19T19:03:21.735Z,-3.39
2022-12-19T19:06:37.289Z,-3.41
2022-12-19T19:09:45.031Z,-3.41
2022-12-19T19:13:43.869Z,-3.33
2022-12-19T19:16:53.128Z,-3.32
2022-12-19T19:19:59.015Z,-3.28
2022-12-19T19:23:08.649Z,-3.26
2022-12-19T19:26:14.547Z,-3.31
2022-12-19T19:29:21.683Z,-3.31
2022-12-19T19:32:30.700Z,-3.37
2022-12-19T19:35:39.857Z,-3.40
2022-12-19T19:38:52.482Z,-3.41
2022-12-19T19:41:59.176Z,-3.35
2022-12-19T19:45:04.568Z,-3.30
2022-12-19T19:48:14.256Z,-3.24
2022-12-19T19:51:20.235Z,-3.18
2022-12-19T19:54:26.575Z,-3.21
2022-12-19T19:57:31.945Z,-3.30
2022-12-19T20:00:38.655Z,-3.27
2022-12-19T20:03:48.628Z,-3.29
2022-12-19T20:06:55.018Z,-3.32
2022-12-19T20:10:00.535Z,-3.36
2022-12-19T20:13:07.103Z,-3.35
2022-12-19T20:16:16.807Z,-3.30
2022-12-19T20:19:26.207Z,-3.30
2022-12-19T20:22:32.928Z,-3.25
2022-12-19T20:25:40.312Z,-3.27
2022-12-19T20:28:49.310Z,-3.41
2022-12-19T20:31:56.891Z,-3.32
2022-12-19T20:35:10.657Z,-3.23
2022-12-19T20:38:20.640Z,-3.34
2022-12-19T20:41:26.229Z,-3.30
2022-12-19T20:44:32.607Z,-3.23
2022-12-19T20:47:37.968Z,-3.24
2022-12-19T20:50:47.219Z,-3.23
2022-12-19T20:53:57.831Z,-3.19
2022-12-19T20:57:04.072Z,-3.24
2022-12-19T21:00:11.863Z,-3.24
2022-12-19T21:03:27.735Z,-3.17
2022-12-19T21:06:38.251Z,-3.09
2022-12-19T21:09:45.109Z,-3.03
2022-12-19T21:12:50.584Z,-2.98
2022-12-19T21:15:58.604Z,-2.90
2022-12-19T21:19:04.151Z,-2.91
2022-12-19T21:22:13.303Z,-2.94
2022-12-19T21:25:18.852Z,-2.96
2022-12-19T21:28:25.462Z,-2.99
2022-12-19T21:31:33.371Z,-3.02
2022-12-19T21:34:39.636Z,-2.99
2022-12-19T21:37:51.467Z,-2.99
2022-12-19T21:41:00.625Z,-2.98
2022-12-19T21:44:06.474Z,-2.95
2022-12-19T21:47:12.951Z,-3.03
2022-12-19T21:50:19.532Z,-3.03
2022-12-19T21:53:28.582Z,-2.95
2022-12-19T21:56:37.408Z,-3.03
2022-12-19T21:59:43.614Z,-2.98
2022-12-19T22:03:12.507Z,-2.98
2022-12-19T22:06:27.303Z,-2.96
2022-12-19T22:09:37.103Z,-2.88
2022-12-19T22:12:43.412Z,-2.87
2022-12-19T22:15:48.903Z,-2.88
2022-12-19T22:18:56.716Z,-2.98
2022-12-19T22:22:03.037Z,-2.90
2022-12-19T22:25:13.253Z,-2.99
2022-12-19T22:28:18.653Z,-2.93
2022-12-19T22:31:29.179Z,-2.86
2022-12-19T22:34:34.929Z,-2.86
2022-12-19T22:37:41.460Z,-2.93
2022-12-19T22:40:50.395Z,-2.91
2022-12-19T22:43:58.203Z,-2.99
2022-12-19T22:47:04.179Z,-2.86
2022-12-19T22:50:12.713Z,-2.76
2022-12-19T22:53:18.892Z,-2.71
2022-12-19T22:56:31.177Z,-2.75
2022-12-19T22:59:36.784Z,-2.82
2022-12-19T23:02:44.211Z,-2.72
2022-12-19T23:05:52.074Z,-2.69
2022-12-19T23:08:59.046Z,-2.65
2022-12-19T23:12:07.574Z,-2.65
2022-12-19T23:15:14.460Z,-2.73
2022-12-19T23:18:20.108Z,-2.61
2022-12-19T23:21:28.483Z,-2.71
2022-12-19T23:24:33.935Z,-2.68
2022-12-19T23:27:44.119Z,-2.61
2022-12-19T23:30:49.549Z,-2.66
2022-12-19T23:33:56.262Z,-2.67
2022-12-19T23:37:10.794Z,-2.77
2022-12-19T23:40:18.411Z,-2.69
2022-12-19T23:43:26.757Z,-2.57
2022-12-19T23:46:33.685Z,-2.63
2022-12-19T23:49:39.065Z,-2.67
2022-12-19T23:52:46.528Z,-2.60
2022-12-19T23:55:53.018Z,-2.53
2022-12-19T23:59:02.822Z,-2.57
